This is the latest recevied weather packets stored in our database for station/object WB3IGR. If no packets are shown the sender has not sent any weather packets the latest 10 day(s).
| Time | Temp. | Humidity | Pressure | Rain* | Wind** | Luminosity | Snow |
|---|---|---|---|---|---|---|---|
| 1777497045 | 11.67° C | 99% | 1010.9 hPa | 6.1 mm | - | 47 W/m² | - |
| 1777496743 | 11.67° C | 99% | 1011.2 hPa | 4.32 mm | - | 21 W/m² | - |
| 1777496439 | 11.67° C | 99% | 1011.3 hPa | 1.27 mm | - | 18 W/m² | - |
| 1777496136 | 11.67° C | 98% | 1011.3 hPa | 0 mm | - | 21 W/m² | - |
| 1777495832 | 11.67° C | 98% | 1011.2 hPa | 0 mm | - | 62 W/m² | - |
| 1777495528 | 11.67° C | 98% | 1011.1 hPa | 1.78 mm | - | 64 W/m² | - |
| 1777495224 | 11.67° C | 98% | 1011 hPa | 1.78 mm | - | 66 W/m² | - |
| 1777494922 | 11.67° C | 98% | 1011.2 hPa | 0 mm | - | 45 W/m² | - |
| 1777494619 | 11.67° C | 97% | 1011.1 hPa | 0 mm | - | 55 W/m² | - |
| 1777494316 | 11.67° C | 97% | 1011.3 hPa | 0 mm | - | 93 W/m² | - |
| 1777494012 | 11.67° C | 97% | 1011 hPa | 0 mm | - | 108 W/m² | - |
| 1777493711 | 11.67° C | 97% | 1011.3 hPa | 0 mm | - | 129 W/m² | - |
| 1777493409 | 11.67° C | 96% | 1011.7 hPa | 0 mm | - | 108 W/m² | - |
| 1777493104 | 11.67° C | 95% | 1011.8 hPa | 0 mm | - | 98 W/m² | - |
| 1777492801 | 11.67° C | 95% | 1011.7 hPa | 0 mm | - | 101 W/m² | - |
| 1777492496 | 11.67° C | 94% | 1012.1 hPa | 0 mm | - | 75 W/m² | - |
| 1777492193 | 11.67° C | 93% | 1012.1 hPa | 0 mm | - | 79 W/m² | - |
| 1777491890 | 11.67° C | 93% | 1012.2 hPa | 0 mm | - | 68 W/m² | - |
| 1777491586 | 11.67° C | 93% | 1012.2 hPa | 0 mm | - | 97 W/m² | - |
| 1777491284 | 11.67° C | 93% | 1012.2 hPa | 0 mm | - | 82 W/m² | - |
| 1777490981 | 12.22° C | 93% | 1012.3 hPa | 0 mm | - | 70 W/m² | - |
| 1777490676 | 12.22° C | 93% | 1012.6 hPa | 0 mm | - | 81 W/m² | - |
| 1777490372 | 12.22° C | 92% | 1012.5 hPa | 0 mm | - | 124 W/m² | - |
| 1777490070 | 12.22° C | 92% | 1012.8 hPa | 0 mm | - | 88 W/m² | - |
| 1777489767 | 12.22° C | 90% | 1012.7 hPa | 0 mm | - | 116 W/m² | - |
* Rain latest hour (hover to see other rain measurements)
** Current wind speed in m/s (hover to see current wind gust speed)